sensor_id;sensor_type;location;lat;lon;timestamp;temperature;humidity
7588;DHT22;3835;48.850;8.938;2023-05-19T00:00:03;9.80;99.90
7588;DHT22;3835;48.850;8.938;2023-05-19T00:02:33;9.70;99.90
7588;DHT22;3835;48.850;8.938;2023-05-19T00:05:00;9.70;99.90
7588;DHT22;3835;48.850;8.938;2023-05-19T00:07:30;9.60;99.90
7588;DHT22;3835;48.850;8.938;2023-05-19T00:09:58;9.40;99.90
7588;DHT22;3835;48.850;8.938;2023-05-19T00:12:25;9.20;99.90
7588;DHT22;3835;48.850;8.938;2023-05-19T00:14:53;9.30;99.90
7588;DHT22;3835;48.850;8.938;2023-05-19T00:17:20;9.20;99.90
7588;DHT22;3835;48.850;8.938;2023-05-19T00:19:48;9.10;99.90
7588;DHT22;3835;48.850;8.938;2023-05-19T00:22:15;9.10;99.90
7588;DHT22;3835;48.850;8.938;2023-05-19T00:24:41;9.00;99.90
7588;DHT22;3835;48.850;8.938;2023-05-19T00:27:08;8.90;99.90
7588;DHT22;3835;48.850;8.938;2023-05-19T00:29:35;8.90;99.90
7588;DHT22;3835;48.850;8.938;2023-05-19T00:32:02;8.90;99.90
7588;DHT22;3835;48.850;8.938;2023-05-19T00:34:29;8.90;99.90
7588;DHT22;3835;48.850;8.938;2023-05-19T00:36:57;8.80;99.90
7588;DHT22;3835;48.850;8.938;2023-05-19T00:39:23;8.90;99.90
7588;DHT22;3835;48.850;8.938;2023-05-19T00:41:50;8.90;99.90
7588;DHT22;3835;48.850;8.938;2023-05-19T00:44:17;8.90;99.90
7588;DHT22;3835;48.850;8.938;2023-05-19T00:46:44;8.90;99.90
7588;DHT22;3835;48.850;8.938;2023-05-19T00:49:10;8.90;99.90
7588;DHT22;3835;48.850;8.938;2023-05-19T00:51:37;8.90;99.90
7588;DHT22;3835;48.850;8.938;2023-05-19T00:54:06;8.90;99.90
7588;DHT22;3835;48.850;8.938;2023-05-19T00:56:33;8.80;99.90
7588;DHT22;3835;48.850;8.938;2023-05-19T00:59:00;8.70;99.90
7588;DHT22;3835;48.850;8.938;2023-05-19T01:01:27;8.70;99.90
7588;DHT22;3835;48.850;8.938;2023-05-19T01:03:57;8.60;99.90
7588;DHT22;3835;48.850;8.938;2023-05-19T01:06:23;8.60;99.90
7588;DHT22;3835;48.850;8.938;2023-05-19T01:08:53;8.60;99.90
7588;DHT22;3835;48.850;8.938;2023-05-19T01:11:21;8.60;99.90
7588;DHT22;3835;48.850;8.938;2023-05-19T01:13:47;8.60;99.90
7588;DHT22;3835;48.850;8.938;2023-05-19T01:16:21;8.70;99.90
7588;DHT22;3835;48.850;8.938;2023-05-19T01:18:55;8.70;99.90
7588;DHT22;3835;48.850;8.938;2023-05-19T01:24:50;8.60;99.90
7588;DHT22;3835;48.850;8.938;2023-05-19T01:27:46;8.50;99.90
7588;DHT22;3835;48.850;8.938;2023-05-19T01:30:26;8.60;99.90
7588;DHT22;3835;48.850;8.938;2023-05-19T01:32:57;8.60;99.90
7588;DHT22;3835;48.850;8.938;2023-05-19T01:35:26;8.60;99.90
7588;DHT22;3835;48.850;8.938;2023-05-19T01:37:54;8.60;99.90
7588;DHT22;3835;48.850;8.938;2023-05-19T01:40:22;8.60;99.90
7588;DHT22;3835;48.850;8.938;2023-05-19T01:42:51;8.60;99.90
7588;DHT22;3835;48.850;8.938;2023-05-19T01:45:20;8.60;99.90
7588;DHT22;3835;48.850;8.938;2023-05-19T01:47:49;8.60;99.90
7588;DHT22;3835;48.850;8.938;2023-05-19T01:50:16;8.60;99.90
7588;DHT22;3835;48.850;8.938;2023-05-19T01:52:43;8.60;99.90
7588;DHT22;3835;48.850;8.938;2023-05-19T01:55:10;8.60;99.90
7588;DHT22;3835;48.850;8.938;2023-05-19T01:57:45;8.60;99.90
7588;DHT22;3835;48.850;8.938;2023-05-19T02:00:22;8.50;99.90
7588;DHT22;3835;48.850;8.938;2023-05-19T02:02:58;8.50;99.90
7588;DHT22;3835;48.850;8.938;2023-05-19T02:05:35;8.50;99.90
7588;DHT22;3835;48.850;8.938;2023-05-19T02:08:10;8.40;99.90
7588;DHT22;3835;48.850;8.938;2023-05-19T02:10:40;8.40;99.90
7588;DHT22;3835;48.850;8.938;2023-05-19T02:13:12;8.40;99.90
7588;DHT22;3835;48.850;8.938;2023-05-19T02:15:41;8.40;99.90
7588;DHT22;3835;48.850;8.938;2023-05-19T02:18:09;8.30;99.90
7588;DHT22;3835;48.850;8.938;2023-05-19T02:20:36;8.30;99.90
7588;DHT22;3835;48.850;8.938;2023-05-19T02:23:04;8.30;99.90
7588;DHT22;3835;48.850;8.938;2023-05-19T02:25:30;8.30;99.90
7588;DHT22;3835;48.850;8.938;2023-05-19T02:27:58;8.30;99.90
7588;DHT22;3835;48.850;8.938;2023-05-19T02:30:25;8.30;99.90
7588;DHT22;3835;48.850;8.938;2023-05-19T02:32:53;8.30;99.90
7588;DHT22;3835;48.850;8.938;2023-05-19T02:35:20;8.30;99.90
7588;DHT22;3835;48.850;8.938;2023-05-19T02:37:47;8.40;99.90
7588;DHT22;3835;48.850;8.938;2023-05-19T02:40:14;8.40;99.90
7588;DHT22;3835;48.850;8.938;2023-05-19T02:42:40;8.40;99.90
7588;DHT22;3835;48.850;8.938;2023-05-19T02:45:08;8.40;99.90
7588;DHT22;3835;48.850;8.938;2023-05-19T02:47:35;8.40;99.90
7588;DHT22;3835;48.850;8.938;2023-05-19T02:50:04;8.40;99.90
7588;DHT22;3835;48.850;8.938;2023-05-19T02:52:31;8.40;99.90
7588;DHT22;3835;48.850;8.938;2023-05-19T02:54:58;8.40;99.90
7588;DHT22;3835;48.850;8.938;2023-05-19T02:57:25;8.40;99.90
7588;DHT22;3835;48.850;8.938;2023-05-19T02:59:52;8.40;99.90
7588;DHT22;3835;48.850;8.938;2023-05-19T03:02:18;8.40;99.90
7588;DHT22;3835;48.850;8.938;2023-05-19T03:04:45;8.40;99.90
7588;DHT22;3835;48.850;8.938;2023-05-19T03:07:13;8.40;99.90
7588;DHT22;3835;48.850;8.938;2023-05-19T03:09:40;8.50;99.90
7588;DHT22;3835;48.850;8.938;2023-05-19T03:12:07;8.50;99.90
7588;DHT22;3835;48.850;8.938;2023-05-19T03:14:34;8.60;99.90
7588;DHT22;3835;48.850;8.938;2023-05-19T03:17:03;8.50;99.90
7588;DHT22;3835;48.850;8.938;2023-05-19T03:19:31;8.50;99.90
7588;DHT22;3835;48.850;8.938;2023-05-19T03:21:58;8.50;99.90
7588;DHT22;3835;48.850;8.938;2023-05-19T03:24:26;8.50;99.90
7588;DHT22;3835;48.850;8.938;2023-05-19T03:26:53;8.50;99.90
7588;DHT22;3835;48.850;8.938;2023-05-19T03:29:20;8.40;99.90
7588;DHT22;3835;48.850;8.938;2023-05-19T03:31:46;8.40;99.90
7588;DHT22;3835;48.850;8.938;2023-05-19T03:34:13;8.40;99.90
7588;DHT22;3835;48.850;8.938;2023-05-19T03:36:40;8.40;99.90
7588;DHT22;3835;48.850;8.938;2023-05-19T03:39:07;8.40;99.90
7588;DHT22;3835;48.850;8.938;2023-05-19T03:41:36;8.40;99.90
7588;DHT22;3835;48.850;8.938;2023-05-19T03:44:03;8.40;99.90
7588;DHT22;3835;48.850;8.938;2023-05-19T03:46:30;8.30;99.90
7588;DHT22;3835;48.850;8.938;2023-05-19T03:48:57;8.30;99.90
7588;DHT22;3835;48.850;8.938;2023-05-19T03:51:24;8.30;99.90
7588;DHT22;3835;48.850;8.938;2023-05-19T03:53:53;8.20;99.90
7588;DHT22;3835;48.850;8.938;2023-05-19T03:56:20;8.30;99.90
7588;DHT22;3835;48.850;8.938;2023-05-19T03:58:49;8.30;99.90
7588;DHT22;3835;48.850;8.938;2023-05-19T04:01:16;8.30;99.90
7588;DHT22;3835;48.850;8.938;2023-05-19T04:03:43;8.30;99.90
7588;DHT22;3835;48.850;8.938;2023-05-19T04:06:10;8.30;99.90
7588;DHT22;3835;48.850;8.938;2023-05-19T04:08:38;8.30;99.90
7588;DHT22;3835;48.850;8.938;2023-05-19T04:11:04;8.30;99.90
7588;DHT22;3835;48.850;8.938;2023-05-19T04:13:32;8.40;99.90
7588;DHT22;3835;48.850;8.938;2023-05-19T04:16:00;8.40;99.90
7588;DHT22;3835;48.850;8.938;2023-05-19T04:18:27;8.40;99.90
7588;DHT22;3835;48.850;8.938;2023-05-19T04:20:54;8.40;99.90
7588;DHT22;3835;48.850;8.938;2023-05-19T04:23:20;8.50;99.90
7588;DHT22;3835;48.850;8.938;2023-05-19T04:25:47;8.50;99.90
7588;DHT22;3835;48.850;8.938;2023-05-19T04:28:14;8.40;99.90
7588;DHT22;3835;48.850;8.938;2023-05-19T04:30:42;8.60;99.90
7588;DHT22;3835;48.850;8.938;2023-05-19T04:33:12;8.70;99.90
7588;DHT22;3835;48.850;8.938;2023-05-19T04:35:39;8.70;99.90
7588;DHT22;3835;48.850;8.938;2023-05-19T04:38:05;8.90;99.90
7588;DHT22;3835;48.850;8.938;2023-05-19T04:40:34;8.90;99.90
7588;DHT22;3835;48.850;8.938;2023-05-19T04:43:01;9.00;99.90
7588;DHT22;3835;48.850;8.938;2023-05-19T04:45:28;9.00;99.90
7588;DHT22;3835;48.850;8.938;2023-05-19T04:47:57;9.20;99.90
7588;DHT22;3835;48.850;8.938;2023-05-19T04:50:25;9.30;99.90
7588;DHT22;3835;48.850;8.938;2023-05-19T04:52:53;9.50;99.90
7588;DHT22;3835;48.850;8.938;2023-05-19T04:55:20;9.50;99.90
7588;DHT22;3835;48.850;8.938;2023-05-19T04:57:47;9.60;99.90
7588;DHT22;3835;48.850;8.938;2023-05-19T05:00:15;9.60;99.90
7588;DHT22;3835;48.850;8.938;2023-05-19T05:02:42;9.70;99.90
7588;DHT22;3835;48.850;8.938;2023-05-19T05:05:08;9.70;99.90
7588;DHT22;3835;48.850;8.938;2023-05-19T05:07:37;9.60;99.90
7588;DHT22;3835;48.850;8.938;2023-05-19T05:10:04;9.70;99.90
7588;DHT22;3835;48.850;8.938;2023-05-19T05:12:32;9.70;99.90
7588;DHT22;3835;48.850;8.938;2023-05-19T05:14:59;9.90;99.90
7588;DHT22;3835;48.850;8.938;2023-05-19T05:17:27;10.00;99.90
7588;DHT22;3835;48.850;8.938;2023-05-19T05:19:54;10.20;99.90
7588;DHT22;3835;48.850;8.938;2023-05-19T05:22:21;10.40;99.90
7588;DHT22;3835;48.850;8.938;2023-05-19T05:24:50;10.60;99.90
7588;DHT22;3835;48.850;8.938;2023-05-19T05:27:17;11.10;99.90
7588;DHT22;3835;48.850;8.938;2023-05-19T05:29:43;11.60;99.90
7588;DHT22;3835;48.850;8.938;2023-05-19T05:32:10;11.90;99.90
7588;DHT22;3835;48.850;8.938;2023-05-19T05:34:37;12.60;99.90
7588;DHT22;3835;48.850;8.938;2023-05-19T05:37:05;13.00;99.90
7588;DHT22;3835;48.850;8.938;2023-05-19T05:39:32;13.00;99.90
7588;DHT22;3835;48.850;8.938;2023-05-19T05:42:00;13.10;99.90
7588;DHT22;3835;48.850;8.938;2023-05-19T05:44:27;13.10;99.90
7588;DHT22;3835;48.850;8.938;2023-05-19T05:46:54;12.80;99.90
7588;DHT22;3835;48.850;8.938;2023-05-19T05:49:21;12.60;99.90
7588;DHT22;3835;48.850;8.938;2023-05-19T05:51:48;12.60;99.90
7588;DHT22;3835;48.850;8.938;2023-05-19T05:54:17;12.50;99.90
7588;DHT22;3835;48.850;8.938;2023-05-19T05:56:44;12.30;99.90
7588;DHT22;3835;48.850;8.938;2023-05-19T05:59:13;12.30;99.90
7588;DHT22;3835;48.850;8.938;2023-05-19T06:01:40;12.00;99.90
7588;DHT22;3835;48.850;8.938;2023-05-19T06:04:08;11.90;99.90
7588;DHT22;3835;48.850;8.938;2023-05-19T06:06:35;12.00;99.90
7588;DHT22;3835;48.850;8.938;2023-05-19T06:09:02;11.90;99.90
7588;DHT22;3835;48.850;8.938;2023-05-19T06:11:29;12.10;99.90
7588;DHT22;3835;48.850;8.938;2023-05-19T06:13:56;12.30;99.90
7588;DHT22;3835;48.850;8.938;2023-05-19T06:16:24;12.20;99.90
7588;DHT22;3835;48.850;8.938;2023-05-19T06:18:51;12.30;99.90
7588;DHT22;3835;48.850;8.938;2023-05-19T06:21:18;12.30;99.90
7588;DHT22;3835;48.850;8.938;2023-05-19T06:23:44;12.00;99.90
7588;DHT22;3835;48.850;8.938;2023-05-19T06:26:11;12.30;99.90
7588;DHT22;3835;48.850;8.938;2023-05-19T06:28:38;12.40;99.90
7588;DHT22;3835;48.850;8.938;2023-05-19T06:31:05;12.50;99.90
7588;DHT22;3835;48.850;8.938;2023-05-19T06:33:33;12.40;99.90
7588;DHT22;3835;48.850;8.938;2023-05-19T06:35:59;12.50;99.90
7588;DHT22;3835;48.850;8.938;2023-05-19T06:38:26;12.50;99.90
7588;DHT22;3835;48.850;8.938;2023-05-19T06:40:53;12.30;99.90
7588;DHT22;3835;48.850;8.938;2023-05-19T06:43:20;12.60;99.90
7588;DHT22;3835;48.850;8.938;2023-05-19T06:45:46;12.70;99.90
7588;DHT22;3835;48.850;8.938;2023-05-19T06:48:13;12.90;99.90
7588;DHT22;3835;48.850;8.938;2023-05-19T06:50:41;13.10;99.90
7588;DHT22;3835;48.850;8.938;2023-05-19T06:53:08;13.50;99.90
7588;DHT22;3835;48.850;8.938;2023-05-19T06:55:35;13.90;99.90
7588;DHT22;3835;48.850;8.938;2023-05-19T06:58:01;14.30;99.90
7588;DHT22;3835;48.850;8.938;2023-05-19T07:00:28;14.40;99.90
7588;DHT22;3835;48.850;8.938;2023-05-19T07:02:55;14.50;99.90
7588;DHT22;3835;48.850;8.938;2023-05-19T07:05:21;14.50;99.90
7588;DHT22;3835;48.850;8.938;2023-05-19T07:07:49;14.40;99.90
7588;DHT22;3835;48.850;8.938;2023-05-19T07:10:16;14.40;99.90
7588;DHT22;3835;48.850;8.938;2023-05-19T07:12:43;14.30;99.90
7588;DHT22;3835;48.850;8.938;2023-05-19T07:15:10;14.40;99.90
7588;DHT22;3835;48.850;8.938;2023-05-19T07:17:37;14.30;99.90
7588;DHT22;3835;48.850;8.938;2023-05-19T07:20:04;14.40;99.90
7588;DHT22;3835;48.850;8.938;2023-05-19T07:22:34;14.10;99.90
7588;DHT22;3835;48.850;8.938;2023-05-19T07:25:02;14.40;99.90
7588;DHT22;3835;48.850;8.938;2023-05-19T07:27:29;14.60;99.90
7588;DHT22;3835;48.850;8.938;2023-05-19T07:29:56;14.80;99.90
7588;DHT22;3835;48.850;8.938;2023-05-19T07:32:23;15.00;99.90
7588;DHT22;3835;48.850;8.938;2023-05-19T07:34:50;15.10;99.90
7588;DHT22;3835;48.850;8.938;2023-05-19T07:37:17;15.00;99.90
7588;DHT22;3835;48.850;8.938;2023-05-19T07:39:44;15.20;99.90
7588;DHT22;3835;48.850;8.938;2023-05-19T07:42:12;15.10;99.90
7588;DHT22;3835;48.850;8.938;2023-05-19T07:44:39;14.90;99.90
7588;DHT22;3835;48.850;8.938;2023-05-19T07:47:05;14.80;99.90
7588;DHT22;3835;48.850;8.938;2023-05-19T07:49:32;14.70;99.90
7588;DHT22;3835;48.850;8.938;2023-05-19T07:51:59;14.70;99.90
7588;DHT22;3835;48.850;8.938;2023-05-19T07:54:26;14.50;99.90
7588;DHT22;3835;48.850;8.938;2023-05-19T07:56:52;14.20;99.90
7588;DHT22;3835;48.850;8.938;2023-05-19T07:59:20;14.10;99.90
7588;DHT22;3835;48.850;8.938;2023-05-19T08:01:48;13.90;99.90
7588;DHT22;3835;48.850;8.938;2023-05-19T08:04:14;14.10;99.90
7588;DHT22;3835;48.850;8.938;2023-05-19T08:06:41;14.00;99.90
7588;DHT22;3835;48.850;8.938;2023-05-19T08:09:09;13.90;99.90
7588;DHT22;3835;48.850;8.938;2023-05-19T08:11:36;13.60;99.90
7588;DHT22;3835;48.850;8.938;2023-05-19T08:14:03;13.60;99.90
7588;DHT22;3835;48.850;8.938;2023-05-19T08:16:31;13.60;99.90
7588;DHT22;3835;48.850;8.938;2023-05-19T08:18:58;13.60;99.90
7588;DHT22;3835;48.850;8.938;2023-05-19T08:21:27;13.50;99.90
7588;DHT22;3835;48.850;8.938;2023-05-19T08:23:53;13.40;99.90
7588;DHT22;3835;48.850;8.938;2023-05-19T08:26:21;13.50;99.90
7588;DHT22;3835;48.850;8.938;2023-05-19T08:28:48;13.60;99.90
7588;DHT22;3835;48.850;8.938;2023-05-19T08:31:15;13.90;99.90
7588;DHT22;3835;48.850;8.938;2023-05-19T08:33:44;14.00;99.90
7588;DHT22;3835;48.850;8.938;2023-05-19T08:36:11;14.30;99.90
7588;DHT22;3835;48.850;8.938;2023-05-19T08:38:37;14.20;99.90
7588;DHT22;3835;48.850;8.938;2023-05-19T08:41:05;14.10;99.90
7588;DHT22;3835;48.850;8.938;2023-05-19T08:43:31;14.10;99.90
7588;DHT22;3835;48.850;8.938;2023-05-19T08:45:59;14.20;99.90
7588;DHT22;3835;48.850;8.938;2023-05-19T08:48:28;14.10;99.90
7588;DHT22;3835;48.850;8.938;2023-05-19T08:51:13;14.10;99.90
7588;DHT22;3835;48.850;8.938;2023-05-19T08:53:47;14.30;99.90
7588;DHT22;3835;48.850;8.938;2023-05-19T08:56:18;14.60;99.90
7588;DHT22;3835;48.850;8.938;2023-05-19T08:58:48;14.80;99.90
7588;DHT22;3835;48.850;8.938;2023-05-19T09:01:15;14.80;99.90
7588;DHT22;3835;48.850;8.938;2023-05-19T09:03:43;14.80;99.90
7588;DHT22;3835;48.850;8.938;2023-05-19T09:06:11;15.00;99.90
7588;DHT22;3835;48.850;8.938;2023-05-19T09:08:39;14.60;99.90
7588;DHT22;3835;48.850;8.938;2023-05-19T09:11:06;14.40;99.90
7588;DHT22;3835;48.850;8.938;2023-05-19T09:13:32;14.40;99.90
7588;DHT22;3835;48.850;8.938;2023-05-19T09:16:00;14.40;99.90
7588;DHT22;3835;48.850;8.938;2023-05-19T09:18:27;14.50;99.90
7588;DHT22;3835;48.850;8.938;2023-05-19T09:20:56;14.50;99.90
7588;DHT22;3835;48.850;8.938;2023-05-19T09:23:27;14.60;99.90
7588;DHT22;3835;48.850;8.938;2023-05-19T09:25:55;14.70;99.90
7588;DHT22;3835;48.850;8.938;2023-05-19T09:28:23;14.40;99.90
7588;DHT22;3835;48.850;8.938;2023-05-19T09:30:58;14.50;99.90
7588;DHT22;3835;48.850;8.938;2023-05-19T09:33:25;14.40;99.90
7588;DHT22;3835;48.850;8.938;2023-05-19T09:35:52;14.40;99.90
7588;DHT22;3835;48.850;8.938;2023-05-19T09:38:19;14.40;99.90
7588;DHT22;3835;48.850;8.938;2023-05-19T09:40:48;14.10;99.90
7588;DHT22;3835;48.850;8.938;2023-05-19T09:43:15;14.00;99.90
7588;DHT22;3835;48.850;8.938;2023-05-19T09:45:42;14.00;99.90
7588;DHT22;3835;48.850;8.938;2023-05-19T09:48:09;14.10;99.90
7588;DHT22;3835;48.850;8.938;2023-05-19T09:50:37;14.10;99.90
7588;DHT22;3835;48.850;8.938;2023-05-19T09:53:03;14.20;99.90
7588;DHT22;3835;48.850;8.938;2023-05-19T09:55:30;14.20;99.90
7588;DHT22;3835;48.850;8.938;2023-05-19T09:58:00;14.10;99.90
7588;DHT22;3835;48.850;8.938;2023-05-19T10:00:29;14.20;99.90
7588;DHT22;3835;48.850;8.938;2023-05-19T10:02:59;14.30;99.90
7588;DHT22;3835;48.850;8.938;2023-05-19T10:05:26;14.30;99.90
7588;DHT22;3835;48.850;8.938;2023-05-19T10:07:54;14.20;99.90
7588;DHT22;3835;48.850;8.938;2023-05-19T10:10:21;14.10;99.90
7588;DHT22;3835;48.850;8.938;2023-05-19T10:12:48;14.20;99.90
7588;DHT22;3835;48.850;8.938;2023-05-19T10:15:18;14.30;99.90
7588;DHT22;3835;48.850;8.938;2023-05-19T10:17:45;14.40;99.90
7588;DHT22;3835;48.850;8.938;2023-05-19T10:20:13;14.50;99.90
7588;DHT22;3835;48.850;8.938;2023-05-19T10:22:41;14.50;99.90
7588;DHT22;3835;48.850;8.938;2023-05-19T10:25:09;14.60;99.90
7588;DHT22;3835;48.850;8.938;2023-05-19T10:27:41;14.80;99.90
7588;DHT22;3835;48.850;8.938;2023-05-19T10:30:13;14.80;99.90
7588;DHT22;3835;48.850;8.938;2023-05-19T10:32:43;14.60;99.90
7588;DHT22;3835;48.850;8.938;2023-05-19T10:38:32;14.80;99.90
7588;DHT22;3835;48.850;8.938;2023-05-19T10:41:05;15.00;99.90
7588;DHT22;3835;48.850;8.938;2023-05-19T10:43:48;14.90;99.90
7588;DHT22;3835;48.850;8.938;2023-05-19T10:46:15;14.90;99.90
7588;DHT22;3835;48.850;8.938;2023-05-19T10:48:45;14.80;99.90
7588;DHT22;3835;48.850;8.938;2023-05-19T10:51:13;14.90;99.90
7588;DHT22;3835;48.850;8.938;2023-05-19T10:53:41;15.00;99.90
7588;DHT22;3835;48.850;8.938;2023-05-19T10:56:10;15.00;99.90
7588;DHT22;3835;48.850;8.938;2023-05-19T10:58:47;15.00;99.90
7588;DHT22;3835;48.850;8.938;2023-05-19T11:01:15;14.90;99.90
7588;DHT22;3835;48.850;8.938;2023-05-19T11:03:45;14.80;99.90
7588;DHT22;3835;48.850;8.938;2023-05-19T11:06:19;14.80;99.90
7588;DHT22;3835;48.850;8.938;2023-05-19T11:08:51;14.90;99.90
7588;DHT22;3835;48.850;8.938;2023-05-19T11:11:18;15.00;99.90
7588;DHT22;3835;48.850;8.938;2023-05-19T11:13:46;15.00;99.90
7588;DHT22;3835;48.850;8.938;2023-05-19T11:16:13;15.40;99.90
7588;DHT22;3835;48.850;8.938;2023-05-19T11:18:48;15.70;99.90
7588;DHT22;3835;48.850;8.938;2023-05-19T11:21:15;15.80;99.90
7588;DHT22;3835;48.850;8.938;2023-05-19T11:23:41;15.80;99.90
7588;DHT22;3835;48.850;8.938;2023-05-19T11:26:08;15.70;99.90
7588;DHT22;3835;48.850;8.938;2023-05-19T11:28:36;15.70;99.90
7588;DHT22;3835;48.850;8.938;2023-05-19T11:31:04;15.60;99.90
7588;DHT22;3835;48.850;8.938;2023-05-19T11:33:33;15.50;99.90
7588;DHT22;3835;48.850;8.938;2023-05-19T11:36:03;15.30;99.90
7588;DHT22;3835;48.850;8.938;2023-05-19T11:38:30;15.10;99.90
7588;DHT22;3835;48.850;8.938;2023-05-19T11:40:57;15.00;99.90
7588;DHT22;3835;48.850;8.938;2023-05-19T11:43:25;14.90;99.90
7588;DHT22;3835;48.850;8.938;2023-05-19T11:45:53;14.50;99.90
7588;DHT22;3835;48.850;8.938;2023-05-19T11:48:20;14.40;99.90
7588;DHT22;3835;48.850;8.938;2023-05-19T11:50:49;14.30;99.90
7588;DHT22;3835;48.850;8.938;2023-05-19T11:53:18;14.40;99.90
7588;DHT22;3835;48.850;8.938;2023-05-19T11:55:46;14.30;99.90
7588;DHT22;3835;48.850;8.938;2023-05-19T11:58:13;14.60;99.90
7588;DHT22;3835;48.850;8.938;2023-05-19T12:00:42;14.80;99.90
7588;DHT22;3835;48.850;8.938;2023-05-19T12:03:10;15.00;99.90
7588;DHT22;3835;48.850;8.938;2023-05-19T12:05:42;15.30;99.90
7588;DHT22;3835;48.850;8.938;2023-05-19T12:08:10;15.50;99.90
7588;DHT22;3835;48.850;8.938;2023-05-19T12:10:38;15.70;99.90
7588;DHT22;3835;48.850;8.938;2023-05-19T12:13:05;15.70;99.90
7588;DHT22;3835;48.850;8.938;2023-05-19T12:15:33;15.60;99.90
7588;DHT22;3835;48.850;8.938;2023-05-19T12:18:01;15.60;99.90
7588;DHT22;3835;48.850;8.938;2023-05-19T12:20:29;15.50;99.90
7588;DHT22;3835;48.850;8.938;2023-05-19T12:22:57;15.50;99.90
7588;DHT22;3835;48.850;8.938;2023-05-19T12:25:24;15.40;99.90
7588;DHT22;3835;48.850;8.938;2023-05-19T12:27:56;15.60;99.90
7588;DHT22;3835;48.850;8.938;2023-05-19T12:30:25;15.50;99.90
7588;DHT22;3835;48.850;8.938;2023-05-19T12:32:53;15.40;99.90
7588;DHT22;3835;48.850;8.938;2023-05-19T12:35:25;15.20;99.90
7588;DHT22;3835;48.850;8.938;2023-05-19T12:37:52;15.00;99.90
7588;DHT22;3835;48.850;8.938;2023-05-19T12:40:19;14.80;99.90
7588;DHT22;3835;48.850;8.938;2023-05-19T12:42:46;14.90;99.90
7588;DHT22;3835;48.850;8.938;2023-05-19T12:45:14;14.60;99.90
7588;DHT22;3835;48.850;8.938;2023-05-19T12:47:41;14.60;99.90
7588;DHT22;3835;48.850;8.938;2023-05-19T12:50:12;14.50;99.90
7588;DHT22;3835;48.850;8.938;2023-05-19T12:52:41;14.30;99.90
7588;DHT22;3835;48.850;8.938;2023-05-19T12:55:09;14.30;99.90
7588;DHT22;3835;48.850;8.938;2023-05-19T12:57:37;14.20;99.90
7588;DHT22;3835;48.850;8.938;2023-05-19T13:00:06;14.00;99.90
7588;DHT22;3835;48.850;8.938;2023-05-19T13:02:55;14.00;99.90
7588;DHT22;3835;48.850;8.938;2023-05-19T13:05:22;14.10;99.90
7588;DHT22;3835;48.850;8.938;2023-05-19T13:07:56;14.20;99.90
7588;DHT22;3835;48.850;8.938;2023-05-19T13:10:23;14.10;99.90
7588;DHT22;3835;48.850;8.938;2023-05-19T13:12:51;14.10;99.90
7588;DHT22;3835;48.850;8.938;2023-05-19T13:15:18;14.10;99.90
7588;DHT22;3835;48.850;8.938;2023-05-19T13:17:45;14.20;99.90
7588;DHT22;3835;48.850;8.938;2023-05-19T13:20:14;14.20;99.90
7588;DHT22;3835;48.850;8.938;2023-05-19T13:22:40;14.30;99.90
7588;DHT22;3835;48.850;8.938;2023-05-19T13:25:08;14.40;99.90
7588;DHT22;3835;48.850;8.938;2023-05-19T13:27:35;14.50;99.90
7588;DHT22;3835;48.850;8.938;2023-05-19T13:30:03;14.60;99.90
7588;DHT22;3835;48.850;8.938;2023-05-19T13:32:30;14.50;99.90
7588;DHT22;3835;48.850;8.938;2023-05-19T13:34:57;14.50;99.90
7588;DHT22;3835;48.850;8.938;2023-05-19T13:37:25;14.40;99.90
7588;DHT22;3835;48.850;8.938;2023-05-19T13:39:52;14.40;99.90
7588;DHT22;3835;48.850;8.938;2023-05-19T13:42:19;14.40;99.90
7588;DHT22;3835;48.850;8.938;2023-05-19T13:44:46;14.30;99.90
7588;DHT22;3835;48.850;8.938;2023-05-19T13:47:13;14.20;99.90
7588;DHT22;3835;48.850;8.938;2023-05-19T13:49:40;14.10;99.90
7588;DHT22;3835;48.850;8.938;2023-05-19T13:52:07;14.20;99.90
7588;DHT22;3835;48.850;8.938;2023-05-19T13:54:35;14.20;99.90
7588;DHT22;3835;48.850;8.938;2023-05-19T13:57:02;14.20;99.90
7588;DHT22;3835;48.850;8.938;2023-05-19T13:59:29;14.20;99.90
7588;DHT22;3835;48.850;8.938;2023-05-19T14:01:56;14.30;99.90
7588;DHT22;3835;48.850;8.938;2023-05-19T14:04:22;14.40;99.90
7588;DHT22;3835;48.850;8.938;2023-05-19T14:06:49;14.40;99.90
7588;DHT22;3835;48.850;8.938;2023-05-19T14:09:16;14.30;99.90
7588;DHT22;3835;48.850;8.938;2023-05-19T14:11:45;14.20;99.90
7588;DHT22;3835;48.850;8.938;2023-05-19T14:14:12;14.10;99.90
7588;DHT22;3835;48.850;8.938;2023-05-19T14:16:39;14.00;99.90
7588;DHT22;3835;48.850;8.938;2023-05-19T14:19:05;13.90;99.90
7588;DHT22;3835;48.850;8.938;2023-05-19T14:21:32;13.90;99.90
7588;DHT22;3835;48.850;8.938;2023-05-19T14:23:59;14.00;99.90
7588;DHT22;3835;48.850;8.938;2023-05-19T14:26:26;14.10;99.90
7588;DHT22;3835;48.850;8.938;2023-05-19T14:28:54;14.10;99.90
7588;DHT22;3835;48.850;8.938;2023-05-19T14:31:22;14.10;99.90
7588;DHT22;3835;48.850;8.938;2023-05-19T14:33:49;14.20;99.90
7588;DHT22;3835;48.850;8.938;2023-05-19T14:36:16;14.30;99.90
7588;DHT22;3835;48.850;8.938;2023-05-19T14:38:43;14.30;99.90
7588;DHT22;3835;48.850;8.938;2023-05-19T14:41:09;14.40;99.90
7588;DHT22;3835;48.850;8.938;2023-05-19T14:43:36;14.50;99.90
7588;DHT22;3835;48.850;8.938;2023-05-19T14:46:07;14.70;99.90
7588;DHT22;3835;48.850;8.938;2023-05-19T14:48:34;14.70;99.90
7588;DHT22;3835;48.850;8.938;2023-05-19T14:51:00;14.70;99.90
7588;DHT22;3835;48.850;8.938;2023-05-19T14:53:27;14.80;99.90
7588;DHT22;3835;48.850;8.938;2023-05-19T14:55:54;14.80;99.90
7588;DHT22;3835;48.850;8.938;2023-05-19T14:58:20;14.60;99.90
7588;DHT22;3835;48.850;8.938;2023-05-19T15:00:47;14.60;99.90
7588;DHT22;3835;48.850;8.938;2023-05-19T15:03:15;14.70;99.90
7588;DHT22;3835;48.850;8.938;2023-05-19T15:05:42;14.60;99.90
7588;DHT22;3835;48.850;8.938;2023-05-19T15:08:09;14.60;99.90
7588;DHT22;3835;48.850;8.938;2023-05-19T15:10:36;14.60;99.90
7588;DHT22;3835;48.850;8.938;2023-05-19T15:13:03;14.50;99.90
7588;DHT22;3835;48.850;8.938;2023-05-19T15:15:30;14.40;99.90
7588;DHT22;3835;48.850;8.938;2023-05-19T15:17:56;14.40;99.90
7588;DHT22;3835;48.850;8.938;2023-05-19T15:20:25;14.50;99.90
7588;DHT22;3835;48.850;8.938;2023-05-19T15:22:51;14.50;99.90
7588;DHT22;3835;48.850;8.938;2023-05-19T15:25:18;14.50;99.90
7588;DHT22;3835;48.850;8.938;2023-05-19T15:27:45;14.50;99.90
7588;DHT22;3835;48.850;8.938;2023-05-19T15:30:12;14.60;99.90
7588;DHT22;3835;48.850;8.938;2023-05-19T15:32:38;14.70;99.90
7588;DHT22;3835;48.850;8.938;2023-05-19T15:35:06;14.70;99.90
7588;DHT22;3835;48.850;8.938;2023-05-19T15:37:34;14.80;99.90
7588;DHT22;3835;48.850;8.938;2023-05-19T15:40:01;14.80;99.90
7588;DHT22;3835;48.850;8.938;2023-05-19T15:42:28;14.80;99.90
7588;DHT22;3835;48.850;8.938;2023-05-19T15:44:55;14.70;99.90
7588;DHT22;3835;48.850;8.938;2023-05-19T15:47:22;14.60;99.90
7588;DHT22;3835;48.850;8.938;2023-05-19T15:49:49;14.60;99.90
7588;DHT22;3835;48.850;8.938;2023-05-19T15:52:15;14.60;99.90
7588;DHT22;3835;48.850;8.938;2023-05-19T15:54:44;14.50;99.90
7588;DHT22;3835;48.850;8.938;2023-05-19T15:57:12;14.50;99.90
7588;DHT22;3835;48.850;8.938;2023-05-19T15:59:38;14.50;99.90
7588;DHT22;3835;48.850;8.938;2023-05-19T16:02:05;14.60;99.90
7588;DHT22;3835;48.850;8.938;2023-05-19T16:04:32;14.80;99.90
7588;DHT22;3835;48.850;8.938;2023-05-19T16:06:59;15.00;99.90
7588;DHT22;3835;48.850;8.938;2023-05-19T16:09:26;15.20;99.90
7588;DHT22;3835;48.850;8.938;2023-05-19T16:11:54;15.20;99.90
7588;DHT22;3835;48.850;8.938;2023-05-19T16:14:21;15.30;99.90
7588;DHT22;3835;48.850;8.938;2023-05-19T16:16:48;15.50;99.90